sensor_id;sensor_type;location;lat;lon;timestamp;temperature;humidity
16829;DHT22;8531;48.078;11.968;2023-07-02T00:02:07;17.90;99.90
16829;DHT22;8531;48.078;11.968;2023-07-02T00:04:33;17.70;99.90
16829;DHT22;8531;48.078;11.968;2023-07-02T00:06:59;17.70;99.90
16829;DHT22;8531;48.078;11.968;2023-07-02T00:09:24;17.70;99.90
16829;DHT22;8531;48.078;11.968;2023-07-02T00:11:50;17.70;99.90
16829;DHT22;8531;48.078;11.968;2023-07-02T00:14:15;17.70;99.90
16829;DHT22;8531;48.078;11.968;2023-07-02T00:16:45;17.70;99.90
16829;DHT22;8531;48.078;11.968;2023-07-02T00:19:14;17.70;99.90
16829;DHT22;8531;48.078;11.968;2023-07-02T00:21:41;17.70;99.90
16829;DHT22;8531;48.078;11.968;2023-07-02T00:24:07;17.70;99.90
16829;DHT22;8531;48.078;11.968;2023-07-02T00:26:35;17.70;99.90
16829;DHT22;8531;48.078;11.968;2023-07-02T00:29:02;17.80;99.90
16829;DHT22;8531;48.078;11.968;2023-07-02T00:31:29;17.70;99.90
16829;DHT22;8531;48.078;11.968;2023-07-02T00:33:55;17.70;99.90
16829;DHT22;8531;48.078;11.968;2023-07-02T00:36:20;17.70;99.90
16829;DHT22;8531;48.078;11.968;2023-07-02T00:38:47;17.80;99.90
16829;DHT22;8531;48.078;11.968;2023-07-02T00:41:14;17.80;99.90
16829;DHT22;8531;48.078;11.968;2023-07-02T00:43:39;17.70;99.90
16829;DHT22;8531;48.078;11.968;2023-07-02T00:46:09;17.60;99.90
16829;DHT22;8531;48.078;11.968;2023-07-02T00:48:38;17.70;99.90
16829;DHT22;8531;48.078;11.968;2023-07-02T00:51:04;17.60;99.90
16829;DHT22;8531;48.078;11.968;2023-07-02T00:53:29;17.60;99.90
16829;DHT22;8531;48.078;11.968;2023-07-02T00:55:55;17.70;99.90
16829;DHT22;8531;48.078;11.968;2023-07-02T00:58:21;17.70;99.90
16829;DHT22;8531;48.078;11.968;2023-07-02T01:00:47;17.60;99.90
16829;DHT22;8531;48.078;11.968;2023-07-02T01:03:13;17.60;99.90
16829;DHT22;8531;48.078;11.968;2023-07-02T01:05:38;17.60;99.90
16829;DHT22;8531;48.078;11.968;2023-07-02T01:08:07;17.60;99.90
16829;DHT22;8531;48.078;11.968;2023-07-02T01:10:33;17.60;99.90
16829;DHT22;8531;48.078;11.968;2023-07-02T01:13:04;17.60;99.90
16829;DHT22;8531;48.078;11.968;2023-07-02T01:15:31;17.60;99.90
16829;DHT22;8531;48.078;11.968;2023-07-02T01:17:57;17.50;99.90
16829;DHT22;8531;48.078;11.968;2023-07-02T01:20:24;17.30;99.90
16829;DHT22;8531;48.078;11.968;2023-07-02T01:22:50;17.30;99.90
16829;DHT22;8531;48.078;11.968;2023-07-02T01:25:19;17.30;99.90
16829;DHT22;8531;48.078;11.968;2023-07-02T01:27:50;17.30;99.90
16829;DHT22;8531;48.078;11.968;2023-07-02T01:30:16;17.30;99.90
16829;DHT22;8531;48.078;11.968;2023-07-02T01:32:41;17.30;99.90
16829;DHT22;8531;48.078;11.968;2023-07-02T01:35:08;17.40;99.90
16829;DHT22;8531;48.078;11.968;2023-07-02T01:37:34;17.30;99.90
16829;DHT22;8531;48.078;11.968;2023-07-02T01:40:03;17.30;99.90
16829;DHT22;8531;48.078;11.968;2023-07-02T01:42:32;17.30;99.90
16829;DHT22;8531;48.078;11.968;2023-07-02T01:44:58;17.30;99.90
16829;DHT22;8531;48.078;11.968;2023-07-02T01:47:24;17.20;99.90
16829;DHT22;8531;48.078;11.968;2023-07-02T01:49:50;17.30;99.90
16829;DHT22;8531;48.078;11.968;2023-07-02T01:52:16;17.30;99.90
16829;DHT22;8531;48.078;11.968;2023-07-02T01:54:42;17.20;99.90
16829;DHT22;8531;48.078;11.968;2023-07-02T01:57:08;17.20;99.90
16829;DHT22;8531;48.078;11.968;2023-07-02T01:59:34;17.20;99.90
16829;DHT22;8531;48.078;11.968;2023-07-02T02:02:00;17.20;99.90
16829;DHT22;8531;48.078;11.968;2023-07-02T02:04:25;17.20;99.90
16829;DHT22;8531;48.078;11.968;2023-07-02T02:06:51;17.20;99.90
16829;DHT22;8531;48.078;11.968;2023-07-02T02:09:18;17.30;99.90
16829;DHT22;8531;48.078;11.968;2023-07-02T02:11:48;17.30;99.90
16829;DHT22;8531;48.078;11.968;2023-07-02T02:14:14;17.30;99.90
16829;DHT22;8531;48.078;11.968;2023-07-02T02:16:39;17.30;99.90
16829;DHT22;8531;48.078;11.968;2023-07-02T02:19:05;17.30;99.90
16829;DHT22;8531;48.078;11.968;2023-07-02T02:21:31;17.20;99.90
16829;DHT22;8531;48.078;11.968;2023-07-02T02:23:57;17.20;99.90
16829;DHT22;8531;48.078;11.968;2023-07-02T02:26:23;17.20;99.90
16829;DHT22;8531;48.078;11.968;2023-07-02T02:28:51;17.20;99.90
16829;DHT22;8531;48.078;11.968;2023-07-02T02:31:17;17.30;99.90
16829;DHT22;8531;48.078;11.968;2023-07-02T02:33:43;17.20;99.90
16829;DHT22;8531;48.078;11.968;2023-07-02T02:36:09;17.20;99.90
16829;DHT22;8531;48.078;11.968;2023-07-02T02:38:34;17.10;99.90
16829;DHT22;8531;48.078;11.968;2023-07-02T02:41:02;17.10;99.90
16829;DHT22;8531;48.078;11.968;2023-07-02T02:43:28;17.10;99.90
16829;DHT22;8531;48.078;11.968;2023-07-02T02:45:53;17.10;99.90
16829;DHT22;8531;48.078;11.968;2023-07-02T02:48:19;17.10;99.90
16829;DHT22;8531;48.078;11.968;2023-07-02T02:50:46;17.10;99.90
16829;DHT22;8531;48.078;11.968;2023-07-02T02:53:12;17.20;99.90
16829;DHT22;8531;48.078;11.968;2023-07-02T02:55:37;17.10;99.90
16829;DHT22;8531;48.078;11.968;2023-07-02T02:58:03;17.10;99.90
16829;DHT22;8531;48.078;11.968;2023-07-02T03:00:29;17.10;99.90
16829;DHT22;8531;48.078;11.968;2023-07-02T03:02:55;17.00;99.90
16829;DHT22;8531;48.078;11.968;2023-07-02T03:05:21;16.90;99.90
16829;DHT22;8531;48.078;11.968;2023-07-02T03:07:47;16.90;99.90
16829;DHT22;8531;48.078;11.968;2023-07-02T03:10:13;16.90;99.90
16829;DHT22;8531;48.078;11.968;2023-07-02T03:12:39;17.00;99.90
16829;DHT22;8531;48.078;11.968;2023-07-02T03:15:05;17.00;99.90
16829;DHT22;8531;48.078;11.968;2023-07-02T03:17:31;16.90;99.90
16829;DHT22;8531;48.078;11.968;2023-07-02T03:19:56;16.90;99.90
16829;DHT22;8531;48.078;11.968;2023-07-02T03:22:22;16.90;99.90
16829;DHT22;8531;48.078;11.968;2023-07-02T03:24:48;17.00;99.90
16829;DHT22;8531;48.078;11.968;2023-07-02T03:27:13;17.00;99.90
16829;DHT22;8531;48.078;11.968;2023-07-02T03:29:39;17.00;99.90
16829;DHT22;8531;48.078;11.968;2023-07-02T03:32:05;16.90;99.90
16829;DHT22;8531;48.078;11.968;2023-07-02T03:34:31;16.90;99.90
16829;DHT22;8531;48.078;11.968;2023-07-02T03:36:56;17.00;99.90
16829;DHT22;8531;48.078;11.968;2023-07-02T03:39:22;17.00;99.90
16829;DHT22;8531;48.078;11.968;2023-07-02T03:41:48;17.00;99.90
16829;DHT22;8531;48.078;11.968;2023-07-02T03:44:13;17.10;99.90
16829;DHT22;8531;48.078;11.968;2023-07-02T03:46:39;17.10;99.90
16829;DHT22;8531;48.078;11.968;2023-07-02T03:49:05;17.10;99.90
16829;DHT22;8531;48.078;11.968;2023-07-02T03:51:31;17.10;99.90
16829;DHT22;8531;48.078;11.968;2023-07-02T03:53:58;17.00;99.90
16829;DHT22;8531;48.078;11.968;2023-07-02T03:56:24;17.00;99.90
16829;DHT22;8531;48.078;11.968;2023-07-02T03:58:50;17.00;99.90
16829;DHT22;8531;48.078;11.968;2023-07-02T04:01:16;16.60;99.90
16829;DHT22;8531;48.078;11.968;2023-07-02T04:03:49;16.00;99.90
16829;DHT22;8531;48.078;11.968;2023-07-02T04:06:15;15.50;99.90
16829;DHT22;8531;48.078;11.968;2023-07-02T04:08:41;15.20;99.90
16829;DHT22;8531;48.078;11.968;2023-07-02T04:11:07;15.00;99.90
16829;DHT22;8531;48.078;11.968;2023-07-02T04:13:33;15.00;99.90
16829;DHT22;8531;48.078;11.968;2023-07-02T04:15:58;14.90;99.90
16829;DHT22;8531;48.078;11.968;2023-07-02T04:18:24;14.90;99.90
16829;DHT22;8531;48.078;11.968;2023-07-02T04:20:50;14.90;99.90
16829;DHT22;8531;48.078;11.968;2023-07-02T04:23:15;14.90;99.90
16829;DHT22;8531;48.078;11.968;2023-07-02T04:25:41;14.90;99.90
16829;DHT22;8531;48.078;11.968;2023-07-02T04:28:07;14.80;99.90
16829;DHT22;8531;48.078;11.968;2023-07-02T04:30:33;14.90;99.90
16829;DHT22;8531;48.078;11.968;2023-07-02T04:32:58;14.90;99.90
16829;DHT22;8531;48.078;11.968;2023-07-02T04:35:24;14.90;99.90
16829;DHT22;8531;48.078;11.968;2023-07-02T04:37:50;14.90;99.90
16829;DHT22;8531;48.078;11.968;2023-07-02T04:40:16;15.00;99.90
16829;DHT22;8531;48.078;11.968;2023-07-02T04:42:42;15.00;99.90
16829;DHT22;8531;48.078;11.968;2023-07-02T04:45:13;15.10;99.90
16829;DHT22;8531;48.078;11.968;2023-07-02T04:47:42;15.00;99.90
16829;DHT22;8531;48.078;11.968;2023-07-02T04:50:07;15.00;99.90
16829;DHT22;8531;48.078;11.968;2023-07-02T04:52:33;14.90;99.90
16829;DHT22;8531;48.078;11.968;2023-07-02T04:54:59;15.00;99.90
16829;DHT22;8531;48.078;11.968;2023-07-02T04:57:24;15.10;99.90
16829;DHT22;8531;48.078;11.968;2023-07-02T04:59:50;15.00;99.90
16829;DHT22;8531;48.078;11.968;2023-07-02T05:02:16;15.00;99.90
16829;DHT22;8531;48.078;11.968;2023-07-02T05:04:41;14.90;99.90
16829;DHT22;8531;48.078;11.968;2023-07-02T05:07:07;14.90;99.90
16829;DHT22;8531;48.078;11.968;2023-07-02T05:09:33;14.90;99.90
16829;DHT22;8531;48.078;11.968;2023-07-02T05:11:58;14.90;99.90
16829;DHT22;8531;48.078;11.968;2023-07-02T05:14:24;14.90;99.90
16829;DHT22;8531;48.078;11.968;2023-07-02T05:16:50;15.00;99.90
16829;DHT22;8531;48.078;11.968;2023-07-02T05:19:16;15.00;99.90
16829;DHT22;8531;48.078;11.968;2023-07-02T05:21:42;15.00;99.90
16829;DHT22;8531;48.078;11.968;2023-07-02T05:24:08;15.00;99.90
16829;DHT22;8531;48.078;11.968;2023-07-02T05:26:34;15.10;99.90
16829;DHT22;8531;48.078;11.968;2023-07-02T05:29:00;15.20;99.90
16829;DHT22;8531;48.078;11.968;2023-07-02T05:31:26;15.30;99.90
16829;DHT22;8531;48.078;11.968;2023-07-02T05:33:53;15.30;99.90
16829;DHT22;8531;48.078;11.968;2023-07-02T05:36:19;15.40;99.90
16829;DHT22;8531;48.078;11.968;2023-07-02T05:38:45;15.40;99.90
16829;DHT22;8531;48.078;11.968;2023-07-02T05:41:10;15.30;99.90
16829;DHT22;8531;48.078;11.968;2023-07-02T05:43:36;15.40;99.90
16829;DHT22;8531;48.078;11.968;2023-07-02T05:46:02;15.40;99.90
16829;DHT22;8531;48.078;11.968;2023-07-02T05:48:27;15.40;99.90
16829;DHT22;8531;48.078;11.968;2023-07-02T05:50:54;15.40;99.90
16829;DHT22;8531;48.078;11.968;2023-07-02T05:53:20;15.40;99.90
16829;DHT22;8531;48.078;11.968;2023-07-02T05:55:46;15.40;99.90
16829;DHT22;8531;48.078;11.968;2023-07-02T05:58:12;15.30;99.90
16829;DHT22;8531;48.078;11.968;2023-07-02T06:00:38;15.30;99.90
16829;DHT22;8531;48.078;11.968;2023-07-02T06:03:04;15.30;99.90
16829;DHT22;8531;48.078;11.968;2023-07-02T06:05:30;15.30;99.90
16829;DHT22;8531;48.078;11.968;2023-07-02T06:07:56;15.20;99.90
16829;DHT22;8531;48.078;11.968;2023-07-02T06:10:21;15.20;99.90
16829;DHT22;8531;48.078;11.968;2023-07-02T06:12:47;15.30;99.90
16829;DHT22;8531;48.078;11.968;2023-07-02T06:15:13;15.30;99.90
16829;DHT22;8531;48.078;11.968;2023-07-02T06:17:38;15.30;99.90
16829;DHT22;8531;48.078;11.968;2023-07-02T06:20:04;15.40;99.90
16829;DHT22;8531;48.078;11.968;2023-07-02T06:22:30;15.50;99.90
16829;DHT22;8531;48.078;11.968;2023-07-02T06:24:56;15.30;99.90
16829;DHT22;8531;48.078;11.968;2023-07-02T06:27:22;15.20;99.90
16829;DHT22;8531;48.078;11.968;2023-07-02T06:29:48;15.20;99.90
16829;DHT22;8531;48.078;11.968;2023-07-02T06:32:13;15.20;99.90
16829;DHT22;8531;48.078;11.968;2023-07-02T06:34:39;15.20;99.90
16829;DHT22;8531;48.078;11.968;2023-07-02T06:37:05;15.20;99.90
16829;DHT22;8531;48.078;11.968;2023-07-02T06:39:30;15.20;99.90
16829;DHT22;8531;48.078;11.968;2023-07-02T06:41:56;15.10;99.90
16829;DHT22;8531;48.078;11.968;2023-07-02T06:44:22;15.20;99.90
16829;DHT22;8531;48.078;11.968;2023-07-02T06:46:48;15.40;99.90
16829;DHT22;8531;48.078;11.968;2023-07-02T06:49:13;15.50;99.90
16829;DHT22;8531;48.078;11.968;2023-07-02T06:51:39;15.60;99.90
16829;DHT22;8531;48.078;11.968;2023-07-02T06:54:05;15.60;99.90
16829;DHT22;8531;48.078;11.968;2023-07-02T06:56:31;15.60;99.90
16829;DHT22;8531;48.078;11.968;2023-07-02T06:58:58;15.70;99.90
16829;DHT22;8531;48.078;11.968;2023-07-02T07:01:23;15.70;99.90
16829;DHT22;8531;48.078;11.968;2023-07-02T07:03:49;15.70;99.90
16829;DHT22;8531;48.078;11.968;2023-07-02T07:06:14;15.70;99.90
16829;DHT22;8531;48.078;11.968;2023-07-02T07:08:40;15.80;99.90
16829;DHT22;8531;48.078;11.968;2023-07-02T07:11:06;15.80;99.90
16829;DHT22;8531;48.078;11.968;2023-07-02T07:13:32;15.80;99.90
16829;DHT22;8531;48.078;11.968;2023-07-02T07:15:58;15.80;99.90
16829;DHT22;8531;48.078;11.968;2023-07-02T07:18:23;15.90;99.90
16829;DHT22;8531;48.078;11.968;2023-07-02T07:20:49;15.90;99.90
16829;DHT22;8531;48.078;11.968;2023-07-02T07:23:15;15.70;99.90
16829;DHT22;8531;48.078;11.968;2023-07-02T07:25:42;15.70;99.90
16829;DHT22;8531;48.078;11.968;2023-07-02T07:28:08;15.60;99.90
16829;DHT22;8531;48.078;11.968;2023-07-02T07:30:42;15.70;99.90
16829;DHT22;8531;48.078;11.968;2023-07-02T07:33:07;15.70;99.90
16829;DHT22;8531;48.078;11.968;2023-07-02T07:35:33;15.90;99.90
16829;DHT22;8531;48.078;11.968;2023-07-02T07:37:59;15.90;99.90
16829;DHT22;8531;48.078;11.968;2023-07-02T07:40:24;16.00;99.90
16829;DHT22;8531;48.078;11.968;2023-07-02T07:42:50;16.00;99.90
16829;DHT22;8531;48.078;11.968;2023-07-02T07:45:16;16.10;99.90
16829;DHT22;8531;48.078;11.968;2023-07-02T07:47:41;16.10;99.90
16829;DHT22;8531;48.078;11.968;2023-07-02T07:50:07;16.10;99.90
16829;DHT22;8531;48.078;11.968;2023-07-02T07:52:39;16.10;99.90
16829;DHT22;8531;48.078;11.968;2023-07-02T07:55:08;16.20;99.90
16829;DHT22;8531;48.078;11.968;2023-07-02T07:57:35;16.20;99.90
16829;DHT22;8531;48.078;11.968;2023-07-02T08:00:02;16.20;99.90
16829;DHT22;8531;48.078;11.968;2023-07-02T08:02:29;16.20;99.90
16829;DHT22;8531;48.078;11.968;2023-07-02T08:04:55;16.20;99.90
16829;DHT22;8531;48.078;11.968;2023-07-02T08:07:20;16.20;99.90
16829;DHT22;8531;48.078;11.968;2023-07-02T08:09:46;16.20;99.90
16829;DHT22;8531;48.078;11.968;2023-07-02T08:12:12;16.20;99.90
16829;DHT22;8531;48.078;11.968;2023-07-02T08:14:37;16.20;99.90
16829;DHT22;8531;48.078;11.968;2023-07-02T08:17:03;16.20;99.90
16829;DHT22;8531;48.078;11.968;2023-07-02T08:19:29;16.20;99.90
16829;DHT22;8531;48.078;11.968;2023-07-02T08:21:55;16.00;99.90
16829;DHT22;8531;48.078;11.968;2023-07-02T08:24:20;16.00;99.90
16829;DHT22;8531;48.078;11.968;2023-07-02T08:26:46;15.90;99.90
16829;DHT22;8531;48.078;11.968;2023-07-02T08:29:13;16.00;99.90
16829;DHT22;8531;48.078;11.968;2023-07-02T08:31:40;16.10;99.90
16829;DHT22;8531;48.078;11.968;2023-07-02T08:34:06;16.10;99.90
16829;DHT22;8531;48.078;11.968;2023-07-02T08:36:31;16.20;99.90
16829;DHT22;8531;48.078;11.968;2023-07-02T08:38:57;16.30;99.90
16829;DHT22;8531;48.078;11.968;2023-07-02T08:41:22;16.30;99.90
16829;DHT22;8531;48.078;11.968;2023-07-02T08:43:49;16.30;99.90
16829;DHT22;8531;48.078;11.968;2023-07-02T08:46:15;16.30;99.90
16829;DHT22;8531;48.078;11.968;2023-07-02T08:48:41;16.20;99.90
16829;DHT22;8531;48.078;11.968;2023-07-02T08:51:08;16.10;99.90
16829;DHT22;8531;48.078;11.968;2023-07-02T08:53:34;16.20;99.90
16829;DHT22;8531;48.078;11.968;2023-07-02T08:56:00;16.30;99.90
16829;DHT22;8531;48.078;11.968;2023-07-02T08:58:26;16.20;99.90
16829;DHT22;8531;48.078;11.968;2023-07-02T09:01:11;16.30;99.90
16829;DHT22;8531;48.078;11.968;2023-07-02T09:03:38;16.30;99.90
16829;DHT22;8531;48.078;11.968;2023-07-02T09:06:09;16.40;99.90
16829;DHT22;8531;48.078;11.968;2023-07-02T09:08:35;16.40;99.90
16829;DHT22;8531;48.078;11.968;2023-07-02T09:13:47;16.30;99.90
16829;DHT22;8531;48.078;11.968;2023-07-02T09:16:28;16.30;99.90
16829;DHT22;8531;48.078;11.968;2023-07-02T09:19:01;16.40;99.90
16829;DHT22;8531;48.078;11.968;2023-07-02T09:21:49;16.40;99.90
16829;DHT22;8531;48.078;11.968;2023-07-02T09:24:19;16.30;99.90
16829;DHT22;8531;48.078;11.968;2023-07-02T09:26:52;16.40;99.90
16829;DHT22;8531;48.078;11.968;2023-07-02T09:29:26;16.40;99.90
16829;DHT22;8531;48.078;11.968;2023-07-02T09:31:59;16.40;99.90
16829;DHT22;8531;48.078;11.968;2023-07-02T09:34:30;16.40;99.90
16829;DHT22;8531;48.078;11.968;2023-07-02T09:36:57;16.40;99.90
16829;DHT22;8531;48.078;11.968;2023-07-02T09:39:31;16.50;99.90
16829;DHT22;8531;48.078;11.968;2023-07-02T09:41:58;16.60;99.90
16829;DHT22;8531;48.078;11.968;2023-07-02T09:44:31;16.50;99.90
16829;DHT22;8531;48.078;11.968;2023-07-02T09:47:05;16.50;99.90
16829;DHT22;8531;48.078;11.968;2023-07-02T09:49:43;16.50;99.90
16829;DHT22;8531;48.078;11.968;2023-07-02T09:52:11;16.50;99.90
16829;DHT22;8531;48.078;11.968;2023-07-02T09:54:38;16.50;99.90
16829;DHT22;8531;48.078;11.968;2023-07-02T09:57:04;16.60;99.90
16829;DHT22;8531;48.078;11.968;2023-07-02T09:59:31;16.80;99.90
16829;DHT22;8531;48.078;11.968;2023-07-02T10:01:57;16.90;99.90
16829;DHT22;8531;48.078;11.968;2023-07-02T10:04:23;16.90;99.90
16829;DHT22;8531;48.078;11.968;2023-07-02T10:06:56;17.00;99.90
16829;DHT22;8531;48.078;11.968;2023-07-02T10:09:39;17.10;99.90
16829;DHT22;8531;48.078;11.968;2023-07-02T10:12:22;17.30;99.90
16829;DHT22;8531;48.078;11.968;2023-07-02T10:14:49;17.50;99.90
16829;DHT22;8531;48.078;11.968;2023-07-02T10:17:28;17.80;99.90
16829;DHT22;8531;48.078;11.968;2023-07-02T10:19:56;18.00;99.90
16829;DHT22;8531;48.078;11.968;2023-07-02T10:22:22;18.00;99.90
16829;DHT22;8531;48.078;11.968;2023-07-02T10:24:56;18.10;99.90
16829;DHT22;8531;48.078;11.968;2023-07-02T10:27:40;18.20;99.90
16829;DHT22;8531;48.078;11.968;2023-07-02T10:30:07;18.30;99.90
16829;DHT22;8531;48.078;11.968;2023-07-02T10:32:34;18.50;99.90
16829;DHT22;8531;48.078;11.968;2023-07-02T10:35:17;18.70;99.90
16829;DHT22;8531;48.078;11.968;2023-07-02T10:37:43;18.90;99.90
16829;DHT22;8531;48.078;11.968;2023-07-02T10:40:10;19.10;99.90
16829;DHT22;8531;48.078;11.968;2023-07-02T10:42:50;19.00;99.90
16829;DHT22;8531;48.078;11.968;2023-07-02T10:45:16;19.10;99.90
16829;DHT22;8531;48.078;11.968;2023-07-02T10:47:42;19.10;99.90
16829;DHT22;8531;48.078;11.968;2023-07-02T10:50:18;19.00;99.90
16829;DHT22;8531;48.078;11.968;2023-07-02T10:52:45;19.00;99.90
16829;DHT22;8531;48.078;11.968;2023-07-02T10:55:15;19.10;99.90
16829;DHT22;8531;48.078;11.968;2023-07-02T10:57:41;19.20;99.90
16829;DHT22;8531;48.078;11.968;2023-07-02T11:00:07;19.20;99.90
16829;DHT22;8531;48.078;11.968;2023-07-02T11:02:37;19.50;99.90
16829;DHT22;8531;48.078;11.968;2023-07-02T11:05:06;19.50;99.90
16829;DHT22;8531;48.078;11.968;2023-07-02T11:07:42;19.50;99.90
16829;DHT22;8531;48.078;11.968;2023-07-02T11:10:09;19.70;99.90
16829;DHT22;8531;48.078;11.968;2023-07-02T11:12:35;19.80;99.90
16829;DHT22;8531;48.078;11.968;2023-07-02T11:15:09;19.80;99.90
16829;DHT22;8531;48.078;11.968;2023-07-02T11:17:35;19.80;99.90
16829;DHT22;8531;48.078;11.968;2023-07-02T11:20:01;19.90;99.90
16829;DHT22;8531;48.078;11.968;2023-07-02T11:22:33;20.00;99.90
16829;DHT22;8531;48.078;11.968;2023-07-02T11:25:18;20.00;99.90
16829;DHT22;8531;48.078;11.968;2023-07-02T11:27:45;19.90;99.90
16829;DHT22;8531;48.078;11.968;2023-07-02T11:30:12;19.80;99.90
16829;DHT22;8531;48.078;11.968;2023-07-02T11:32:52;19.80;99.90
16829;DHT22;8531;48.078;11.968;2023-07-02T11:35:19;19.90;99.90
16829;DHT22;8531;48.078;11.968;2023-07-02T11:37:45;20.10;99.90
16829;DHT22;8531;48.078;11.968;2023-07-02T11:40:12;19.90;99.90
16829;DHT22;8531;48.078;11.968;2023-07-02T11:42:39;20.10;99.90
16829;DHT22;8531;48.078;11.968;2023-07-02T11:45:05;20.40;99.90
16829;DHT22;8531;48.078;11.968;2023-07-02T11:47:31;20.90;99.90
16829;DHT22;8531;48.078;11.968;2023-07-02T11:49:56;21.20;99.90
16829;DHT22;8531;48.078;11.968;2023-07-02T11:52:24;21.30;99.90
16829;DHT22;8531;48.078;11.968;2023-07-02T11:54:50;21.70;99.90
16829;DHT22;8531;48.078;11.968;2023-07-02T11:57:16;22.10;99.90
16829;DHT22;8531;48.078;11.968;2023-07-02T11:59:42;22.20;99.90
16829;DHT22;8531;48.078;11.968;2023-07-02T12:02:08;22.10;99.90
16829;DHT22;8531;48.078;11.968;2023-07-02T12:04:33;22.00;99.90
16829;DHT22;8531;48.078;11.968;2023-07-02T12:06:59;22.30;99.90
16829;DHT22;8531;48.078;11.968;2023-07-02T12:09:26;22.70;99.90
16829;DHT22;8531;48.078;11.968;2023-07-02T12:11:53;22.80;99.90
16829;DHT22;8531;48.078;11.968;2023-07-02T12:14:18;22.80;99.90
16829;DHT22;8531;48.078;11.968;2023-07-02T12:16:44;22.70;99.90
16829;DHT22;8531;48.078;11.968;2023-07-02T12:19:10;22.50;99.90
16829;DHT22;8531;48.078;11.968;2023-07-02T12:21:35;22.80;99.90
16829;DHT22;8531;48.078;11.968;2023-07-02T12:24:02;22.90;99.90
16829;DHT22;8531;48.078;11.968;2023-07-02T12:26:28;22.80;99.90
16829;DHT22;8531;48.078;11.968;2023-07-02T12:28:54;22.90;99.90
16829;DHT22;8531;48.078;11.968;2023-07-02T12:31:20;23.50;99.90
16829;DHT22;8531;48.078;11.968;2023-07-02T12:33:45;23.80;99.90
16829;DHT22;8531;48.078;11.968;2023-07-02T12:36:11;24.20;99.90
16829;DHT22;8531;48.078;11.968;2023-07-02T12:38:37;24.00;99.90
16829;DHT22;8531;48.078;11.968;2023-07-02T12:41:03;23.70;99.90
16829;DHT22;8531;48.078;11.968;2023-07-02T12:43:29;24.20;99.90
16829;DHT22;8531;48.078;11.968;2023-07-02T12:45:54;24.40;99.90
16829;DHT22;8531;48.078;11.968;2023-07-02T12:48:20;24.60;99.90
16829;DHT22;8531;48.078;11.968;2023-07-02T12:50:56;24.50;99.90
16829;DHT22;8531;48.078;11.968;2023-07-02T12:53:23;24.10;99.90
16829;DHT22;8531;48.078;11.968;2023-07-02T12:55:49;24.80;99.90
16829;DHT22;8531;48.078;11.968;2023-07-02T12:58:15;24.90;99.90
16829;DHT22;8531;48.078;11.968;2023-07-02T13:00:40;24.90;99.90
16829;DHT22;8531;48.078;11.968;2023-07-02T13:03:12;24.80;99.90
16829;DHT22;8531;48.078;11.968;2023-07-02T13:05:39;24.30;99.90
16829;DHT22;8531;48.078;11.968;2023-07-02T13:08:05;23.90;99.90
16829;DHT22;8531;48.078;11.968;2023-07-02T13:10:32;23.80;99.90
16829;DHT22;8531;48.078;11.968;2023-07-02T13:12:59;23.90;99.90
16829;DHT22;8531;48.078;11.968;2023-07-02T13:15:25;23.70;99.90
16829;DHT22;8531;48.078;11.968;2023-07-02T13:17:50;23.40;99.90
16829;DHT22;8531;48.078;11.968;2023-07-02T13:20:16;23.50;99.90
16829;DHT22;8531;48.078;11.968;2023-07-02T13:22:42;23.90;99.90
16829;DHT22;8531;48.078;11.968;2023-07-02T13:25:08;24.30;99.90
16829;DHT22;8531;48.078;11.968;2023-07-02T13:27:33;24.20;99.90
16829;DHT22;8531;48.078;11.968;2023-07-02T13:29:59;24.10;99.90
16829;DHT22;8531;48.078;11.968;2023-07-02T13:32:25;23.70;99.90
16829;DHT22;8531;48.078;11.968;2023-07-02T13:34:51;23.40;99.90
16829;DHT22;8531;48.078;11.968;2023-07-02T13:37:17;23.50;99.90
16829;DHT22;8531;48.078;11.968;2023-07-02T13:39:45;24.00;99.90
16829;DHT22;8531;48.078;11.968;2023-07-02T13:42:10;24.40;99.90
16829;DHT22;8531;48.078;11.968;2023-07-02T13:44:36;24.40;99.90
16829;DHT22;8531;48.078;11.968;2023-07-02T13:47:01;24.50;99.90
16829;DHT22;8531;48.078;11.968;2023-07-02T13:49:27;24.50;99.90
16829;DHT22;8531;48.078;11.968;2023-07-02T13:51:53;24.70;99.90
16829;DHT22;8531;48.078;11.968;2023-07-02T13:54:18;24.90;99.90
16829;DHT22;8531;48.078;11.968;2023-07-02T13:56:45;24.80;99.90
16829;DHT22;8531;48.078;11.968;2023-07-02T13:59:11;25.00;99.90
16829;DHT22;8531;48.078;11.968;2023-07-02T14:01:37;25.00;99.90
16829;DHT22;8531;48.078;11.968;2023-07-02T14:04:04;24.80;99.90
16829;DHT22;8531;48.078;11.968;2023-07-02T14:06:30;25.20;99.90
16829;DHT22;8531;48.078;11.968;2023-07-02T14:08:56;25.50;99.90
16829;DHT22;8531;48.078;11.968;2023-07-02T14:11:23;25.60;99.90
16829;DHT22;8531;48.078;11.968;2023-07-02T14:13:49;25.50;99.90
16829;DHT22;8531;48.078;11.968;2023-07-02T14:16:15;25.70;99.90
16829;DHT22;8531;48.078;11.968;2023-07-02T14:18:44;25.50;99.90
16829;DHT22;8531;48.078;11.968;2023-07-02T14:21:09;25.40;99.90
16829;DHT22;8531;48.078;11.968;2023-07-02T14:23:35;25.30;99.90
16829;DHT22;8531;48.078;11.968;2023-07-02T14:26:01;25.50;99.90
16829;DHT22;8531;48.078;11.968;2023-07-02T14:28:27;25.50;99.90
16829;DHT22;8531;48.078;11.968;2023-07-02T14:31:02;25.40;99.90
16829;DHT22;8531;48.078;11.968;2023-07-02T14:33:30;25.40;99.90
16829;DHT22;8531;48.078;11.968;2023-07-02T14:35:56;25.50;99.90
16829;DHT22;8531;48.078;11.968;2023-07-02T14:38:22;25.50;99.90
16829;DHT22;8531;48.078;11.968;2023-07-02T14:40:49;25.50;99.90
16829;DHT22;8531;48.078;11.968;2023-07-02T14:43:15;25.80;99.90
16829;DHT22;8531;48.078;11.968;2023-07-02T14:45:51;25.90;99.90
16829;DHT22;8531;48.078;11.968;2023-07-02T14:48:18;25.30;99.90
16829;DHT22;8531;48.078;11.968;2023-07-02T14:53:10;25.20;99.90
16829;DHT22;8531;48.078;11.968;2023-07-02T14:55:36;25.30;99.90
16829;DHT22;8531;48.078;11.968;2023-07-02T14:58:01;25.20;99.90
16829;DHT22;8531;48.078;11.968;2023-07-02T15:00:27;25.40;99.90
16829;DHT22;8531;48.078;11.968;2023-07-02T15:02:53;25.40;99.90
16829;DHT22;8531;48.078;11.968;2023-07-02T15:05:18;25.30;99.90
16829;DHT22;8531;48.078;11.968;2023-07-02T15:07:44;25.30;99.90
16829;DHT22;8531;48.078;11.968;2023-07-02T15:10:10;25.50;99.90
16829;DHT22;8531;48.078;11.968;2023-07-02T15:12:35;25.70;99.90
16829;DHT22;8531;48.078;11.968;2023-07-02T15:15:02;26.10;99.90
16829;DHT22;8531;48.078;11.968;2023-07-02T15:17:28;26.20;99.90
16829;DHT22;8531;48.078;11.968;2023-07-02T15:19:53;26.20;99.90
16829;DHT22;8531;48.078;11.968;2023-07-02T15:22:20;25.80;99.90
16829;DHT22;8531;48.078;11.968;2023-07-02T15:24:46;25.50;99.90
16829;DHT22;8531;48.078;11.968;2023-07-02T15:27:11;25.50;99.90
16829;DHT22;8531;48.078;11.968;2023-07-02T15:29:37;25.80;99.90
16829;DHT22;8531;48.078;11.968;2023-07-02T15:32:03;26.00;99.90
16829;DHT22;8531;48.078;11.968;2023-07-02T15:34:28;26.00;99.90